sensor_id;sensor_type;location;lat;lon;timestamp;pressure;altitude;pressure_sealevel;temperature;humidity
61318;BME280;47201;40.428;-8.436;2023-01-26T00:01:23;101901.19;;;1.77;100.00
61318;BME280;47201;40.428;-8.436;2023-01-26T00:03:23;101892.16;;;1.69;100.00
61318;BME280;47201;40.428;-8.436;2023-01-26T00:05:24;101893.22;;;1.56;100.00
61318;BME280;47201;40.428;-8.436;2023-01-26T00:07:25;101890.84;;;1.44;100.00
61318;BME280;47201;40.428;-8.436;2023-01-26T00:09:25;101889.19;;;1.61;100.00
61318;BME280;47201;40.428;-8.436;2023-01-26T00:11:26;101882.91;;;1.72;100.00
61318;BME280;47201;40.428;-8.436;2023-01-26T00:13:28;101869.88;;;1.86;100.00
61318;BME280;47201;40.428;-8.436;2023-01-26T00:15:30;101862.94;;;1.85;100.00
61318;BME280;47201;40.428;-8.436;2023-01-26T00:17:31;101856.41;;;1.92;100.00
61318;BME280;47201;40.428;-8.436;2023-01-26T00:19:31;101858.09;;;1.91;100.00
61318;BME280;47201;40.428;-8.436;2023-01-26T00:21:32;101857.13;;;2.05;100.00
61318;BME280;47201;40.428;-8.436;2023-01-26T00:23:33;101856.16;;;2.03;100.00
61318;BME280;47201;40.428;-8.436;2023-01-26T00:25:36;101858.34;;;1.96;100.00
61318;BME280;47201;40.428;-8.436;2023-01-26T00:27:36;101864.56;;;1.83;100.00
61318;BME280;47201;40.428;-8.436;2023-01-26T00:29:37;101860.75;;;1.76;100.00
61318;BME280;47201;40.428;-8.436;2023-01-26T00:31:37;101854.25;;;1.83;100.00
61318;BME280;47201;40.428;-8.436;2023-01-26T00:33:38;101849.09;;;1.83;100.00
61318;BME280;47201;40.428;-8.436;2023-01-26T00:35:38;101849.38;;;1.72;100.00
61318;BME280;47201;40.428;-8.436;2023-01-26T00:37:44;101853.09;;;1.61;100.00
61318;BME280;47201;40.428;-8.436;2023-01-26T00:39:48;101853.44;;;1.67;100.00
61318;BME280;47201;40.428;-8.436;2023-01-26T00:41:48;101855.69;;;1.78;100.00
61318;BME280;47201;40.428;-8.436;2023-01-26T00:44:09;101857.78;;;1.85;100.00
61318;BME280;47201;40.428;-8.436;2023-01-26T00:46:09;101849.25;;;1.86;100.00
61318;BME280;47201;40.428;-8.436;2023-01-26T00:48:10;101847.63;;;1.88;100.00
61318;BME280;47201;40.428;-8.436;2023-01-26T00:50:12;101845.03;;;2.21;100.00
61318;BME280;47201;40.428;-8.436;2023-01-26T00:52:12;101846.06;;;2.59;100.00
61318;BME280;47201;40.428;-8.436;2023-01-26T00:54:13;101846.53;;;2.87;100.00
61318;BME280;47201;40.428;-8.436;2023-01-26T00:56:13;101848.88;;;3.18;100.00
61318;BME280;47201;40.428;-8.436;2023-01-26T00:58:14;101840.41;;;3.40;100.00
61318;BME280;47201;40.428;-8.436;2023-01-26T01:00:15;101836.53;;;3.50;100.00
61318;BME280;47201;40.428;-8.436;2023-01-26T01:02:17;101839.75;;;3.64;100.00
61318;BME280;47201;40.428;-8.436;2023-01-26T01:04:18;101838.59;;;3.77;100.00
61318;BME280;47201;40.428;-8.436;2023-01-26T01:06:18;101831.31;;;3.88;100.00
61318;BME280;47201;40.428;-8.436;2023-01-26T01:08:19;101832.19;;;3.88;100.00
61318;BME280;47201;40.428;-8.436;2023-01-26T01:10:19;101825.25;;;3.68;100.00
61318;BME280;47201;40.428;-8.436;2023-01-26T01:12:20;101828.50;;;3.44;100.00
61318;BME280;47201;40.428;-8.436;2023-01-26T01:14:21;101827.59;;;3.24;100.00
61318;BME280;47201;40.428;-8.436;2023-01-26T01:16:21;101817.25;;;3.06;100.00
61318;BME280;47201;40.428;-8.436;2023-01-26T01:18:22;101818.47;;;2.94;100.00
61318;BME280;47201;40.428;-8.436;2023-01-26T01:20:22;101813.53;;;2.99;100.00
61318;BME280;47201;40.428;-8.436;2023-01-26T01:22:23;101804.41;;;3.25;100.00
61318;BME280;47201;40.428;-8.436;2023-01-26T01:24:24;101800.16;;;3.45;100.00
61318;BME280;47201;40.428;-8.436;2023-01-26T01:26:24;101798.25;;;3.61;100.00
61318;BME280;47201;40.428;-8.436;2023-01-26T01:28:25;101790.28;;;3.76;100.00
61318;BME280;47201;40.428;-8.436;2023-01-26T01:30:26;101788.50;;;3.94;100.00
61318;BME280;47201;40.428;-8.436;2023-01-26T01:32:26;101777.59;;;4.02;100.00
61318;BME280;47201;40.428;-8.436;2023-01-26T01:34:27;101787.50;;;4.12;100.00
61318;BME280;47201;40.428;-8.436;2023-01-26T01:36:27;101788.75;;;4.22;100.00
61318;BME280;47201;40.428;-8.436;2023-01-26T01:38:30;101780.19;;;4.23;100.00
61318;BME280;47201;40.428;-8.436;2023-01-26T01:40:31;101781.75;;;4.19;100.00
61318;BME280;47201;40.428;-8.436;2023-01-26T01:42:32;101786.94;;;4.19;100.00
61318;BME280;47201;40.428;-8.436;2023-01-26T01:44:35;101778.31;;;4.19;100.00
61318;BME280;47201;40.428;-8.436;2023-01-26T01:46:36;101775.63;;;4.17;100.00
61318;BME280;47201;40.428;-8.436;2023-01-26T01:50:39;101779.91;;;3.95;100.00
61318;BME280;47201;40.428;-8.436;2023-01-26T01:52:40;101793.25;;;3.65;100.00
61318;BME280;47201;40.428;-8.436;2023-01-26T01:54:43;101796.25;;;3.36;100.00
61318;BME280;47201;40.428;-8.436;2023-01-26T01:56:49;101785.34;;;3.04;100.00
61318;BME280;47201;40.428;-8.436;2023-01-26T01:58:52;101787.25;;;2.72;100.00
61318;BME280;47201;40.428;-8.436;2023-01-26T02:00:54;101780.59;;;2.41;100.00
61318;BME280;47201;40.428;-8.436;2023-01-26T02:02:59;101795.94;;;2.19;100.00
61318;BME280;47201;40.428;-8.436;2023-01-26T02:05:22;101798.13;;;1.95;100.00
61318;BME280;47201;40.428;-8.436;2023-01-26T02:07:23;101796.03;;;1.88;100.00
61318;BME280;47201;40.428;-8.436;2023-01-26T02:09:25;101801.22;;;1.71;100.00
61318;BME280;47201;40.428;-8.436;2023-01-26T02:11:48;101801.84;;;1.51;100.00
61318;BME280;47201;40.428;-8.436;2023-01-26T02:13:49;101800.19;;;1.51;100.00
61318;BME280;47201;40.428;-8.436;2023-01-26T02:15:50;101804.19;;;1.46;100.00
61318;BME280;47201;40.428;-8.436;2023-01-26T02:17:51;101805.97;;;1.47;100.00
61318;BME280;47201;40.428;-8.436;2023-01-26T02:20:04;101813.53;;;1.44;100.00
61318;BME280;47201;40.428;-8.436;2023-01-26T02:22:10;101821.03;;;1.39;100.00
61318;BME280;47201;40.428;-8.436;2023-01-26T02:24:31;101815.03;;;1.24;100.00
61318;BME280;47201;40.428;-8.436;2023-01-26T02:26:34;101810.66;;;1.06;100.00
61318;BME280;47201;40.428;-8.436;2023-01-26T02:28:36;101815.78;;;1.06;100.00
61318;BME280;47201;40.428;-8.436;2023-01-26T02:30:38;101800.28;;;1.05;100.00
61318;BME280;47201;40.428;-8.436;2023-01-26T02:32:38;101804.03;;;0.95;100.00
61318;BME280;47201;40.428;-8.436;2023-01-26T02:34:39;101803.25;;;0.96;100.00
61318;BME280;47201;40.428;-8.436;2023-01-26T02:36:39;101803.56;;;1.02;100.00
61318;BME280;47201;40.428;-8.436;2023-01-26T02:38:41;101798.41;;;1.02;100.00
61318;BME280;47201;40.428;-8.436;2023-01-26T02:42:43;101790.16;;;1.24;100.00
61318;BME280;47201;40.428;-8.436;2023-01-26T02:44:44;101786.06;;;1.28;100.00
61318;BME280;47201;40.428;-8.436;2023-01-26T02:46:45;101777.94;;;1.20;100.00
61318;BME280;47201;40.428;-8.436;2023-01-26T02:48:47;101785.06;;;1.09;100.00
61318;BME280;47201;40.428;-8.436;2023-01-26T02:51:06;101782.97;;;1.02;100.00
61318;BME280;47201;40.428;-8.436;2023-01-26T02:53:07;101778.53;;;1.00;100.00
61318;BME280;47201;40.428;-8.436;2023-01-26T02:55:08;101789.78;;;1.02;100.00
61318;BME280;47201;40.428;-8.436;2023-01-26T02:57:28;101784.09;;;1.07;100.00
61318;BME280;47201;40.428;-8.436;2023-01-26T02:59:29;101789.25;;;1.07;100.00
61318;BME280;47201;40.428;-8.436;2023-01-26T03:01:30;101785.38;;;0.99;100.00
61318;BME280;47201;40.428;-8.436;2023-01-26T03:03:30;101777.22;;;0.91;100.00
61318;BME280;47201;40.428;-8.436;2023-01-26T03:05:44;101765.69;;;0.85;100.00
61318;BME280;47201;40.428;-8.436;2023-01-26T03:07:49;101762.97;;;0.82;100.00
61318;BME280;47201;40.428;-8.436;2023-01-26T03:09:52;101760.97;;;0.92;100.00
61318;BME280;47201;40.428;-8.436;2023-01-26T03:11:53;101766.00;;;1.06;100.00
61318;BME280;47201;40.428;-8.436;2023-01-26T03:13:53;101765.34;;;1.10;100.00
61318;BME280;47201;40.428;-8.436;2023-01-26T03:15:54;101746.38;;;1.08;100.00
61318;BME280;47201;40.428;-8.436;2023-01-26T03:18:06;101754.78;;;1.05;100.00
61318;BME280;47201;40.428;-8.436;2023-01-26T03:20:25;101759.16;;;1.06;100.00
61318;BME280;47201;40.428;-8.436;2023-01-26T03:22:44;101755.47;;;1.18;100.00
61318;BME280;47201;40.428;-8.436;2023-01-26T03:25:04;101753.94;;;1.21;100.00
61318;BME280;47201;40.428;-8.436;2023-01-26T03:27:27;101748.63;;;1.18;100.00
61318;BME280;47201;40.428;-8.436;2023-01-26T03:29:30;101744.75;;;1.10;100.00
61318;BME280;47201;40.428;-8.436;2023-01-26T03:31:33;101751.09;;;1.00;100.00
61318;BME280;47201;40.428;-8.436;2023-01-26T03:33:34;101751.75;;;0.96;100.00
61318;BME280;47201;40.428;-8.436;2023-01-26T03:35:35;101742.56;;;1.01;100.00
61318;BME280;47201;40.428;-8.436;2023-01-26T03:37:36;101745.13;;;1.01;100.00
61318;BME280;47201;40.428;-8.436;2023-01-26T03:39:47;101735.34;;;1.10;100.00
61318;BME280;47201;40.428;-8.436;2023-01-26T03:42:07;101732.63;;;1.24;100.00
61318;BME280;47201;40.428;-8.436;2023-01-26T03:44:27;101726.34;;;1.19;100.00
61318;BME280;47201;40.428;-8.436;2023-01-26T03:46:49;101721.50;;;1.08;100.00
61318;BME280;47201;40.428;-8.436;2023-01-26T03:49:08;101721.00;;;0.99;100.00
61318;BME280;47201;40.428;-8.436;2023-01-26T03:51:28;101712.88;;;0.91;100.00
61318;BME280;47201;40.428;-8.436;2023-01-26T03:53:47;101701.34;;;0.85;100.00
61318;BME280;47201;40.428;-8.436;2023-01-26T03:56:09;101700.84;;;0.75;100.00
61318;BME280;47201;40.428;-8.436;2023-01-26T03:58:18;101696.59;;;0.76;100.00
61318;BME280;47201;40.428;-8.436;2023-01-26T04:00:19;101706.34;;;0.82;100.00
61318;BME280;47201;40.428;-8.436;2023-01-26T04:02:22;101696.69;;;0.94;100.00
61318;BME280;47201;40.428;-8.436;2023-01-26T04:04:43;101693.06;;;1.23;100.00
61318;BME280;47201;40.428;-8.436;2023-01-26T04:07:04;101685.28;;;1.38;100.00
61318;BME280;47201;40.428;-8.436;2023-01-26T04:09:23;101691.28;;;1.39;100.00
61318;BME280;47201;40.428;-8.436;2023-01-26T04:11:24;101690.97;;;1.33;100.00
61318;BME280;47201;40.428;-8.436;2023-01-26T04:13:24;101688.66;;;1.21;100.00
61318;BME280;47201;40.428;-8.436;2023-01-26T04:15:49;101694.28;;;1.14;100.00
61318;BME280;47201;40.428;-8.436;2023-01-26T04:18:09;101685.94;;;1.18;100.00
61318;BME280;47201;40.428;-8.436;2023-01-26T04:20:29;101673.09;;;1.52;100.00
61318;BME280;47201;40.428;-8.436;2023-01-26T04:22:48;101671.34;;;1.86;100.00
61318;BME280;47201;40.428;-8.436;2023-01-26T04:24:50;101676.22;;;2.16;100.00
61318;BME280;47201;40.428;-8.436;2023-01-26T04:26:51;101671.06;;;2.34;100.00
61318;BME280;47201;40.428;-8.436;2023-01-26T04:28:56;101656.22;;;2.48;100.00
61318;BME280;47201;40.428;-8.436;2023-01-26T04:30:57;101667.88;;;2.40;100.00
61318;BME280;47201;40.428;-8.436;2023-01-26T04:32:57;101662.88;;;2.25;100.00
61318;BME280;47201;40.428;-8.436;2023-01-26T04:34:59;101666.19;;;2.04;100.00
61318;BME280;47201;40.428;-8.436;2023-01-26T04:37:01;101659.25;;;1.85;100.00
61318;BME280;47201;40.428;-8.436;2023-01-26T04:39:13;101661.38;;;1.76;100.00
61318;BME280;47201;40.428;-8.436;2023-01-26T04:41:18;101660.75;;;1.63;100.00
61318;BME280;47201;40.428;-8.436;2023-01-26T04:43:26;101665.88;;;1.45;100.00
61318;BME280;47201;40.428;-8.436;2023-01-26T04:45:27;101657.25;;;1.28;100.00
61318;BME280;47201;40.428;-8.436;2023-01-26T04:47:28;101647.13;;;1.15;100.00
61318;BME280;47201;40.428;-8.436;2023-01-26T04:49:29;101651.88;;;1.07;100.00
61318;BME280;47201;40.428;-8.436;2023-01-26T04:51:30;101643.69;;;1.14;100.00
61318;BME280;47201;40.428;-8.436;2023-01-26T04:53:31;101642.09;;;1.34;100.00
61318;BME280;47201;40.428;-8.436;2023-01-26T04:55:32;101645.16;;;1.43;100.00
61318;BME280;47201;40.428;-8.436;2023-01-26T04:57:32;101639.38;;;1.48;100.00
61318;BME280;47201;40.428;-8.436;2023-01-26T04:59:35;101641.53;;;1.40;100.00
61318;BME280;47201;40.428;-8.436;2023-01-26T05:01:36;101641.66;;;1.25;100.00
61318;BME280;47201;40.428;-8.436;2023-01-26T05:03:40;101635.38;;;1.03;100.00
61318;BME280;47201;40.428;-8.436;2023-01-26T05:05:40;101639.47;;;0.83;100.00
61318;BME280;47201;40.428;-8.436;2023-01-26T05:07:41;101628.28;;;0.66;100.00
61318;BME280;47201;40.428;-8.436;2023-01-26T05:09:42;101633.34;;;0.48;100.00
61318;BME280;47201;40.428;-8.436;2023-01-26T05:11:58;101637.63;;;0.33;100.00
61318;BME280;47201;40.428;-8.436;2023-01-26T05:14:37;101630.59;;;0.30;100.00
61318;BME280;47201;40.428;-8.436;2023-01-26T05:17:04;101630.72;;;0.31;100.00
61318;BME280;47201;40.428;-8.436;2023-01-26T05:19:19;101636.72;;;0.32;100.00
61318;BME280;47201;40.428;-8.436;2023-01-26T05:21:26;101632.59;;;0.19;100.00
61318;BME280;47201;40.428;-8.436;2023-01-26T05:23:27;101628.47;;;0.06;100.00
61318;BME280;47201;40.428;-8.436;2023-01-26T05:25:49;101629.72;;;-0.02;100.00
61318;BME280;47201;40.428;-8.436;2023-01-26T05:27:50;101623.41;;;-0.07;100.00
61318;BME280;47201;40.428;-8.436;2023-01-26T05:29:52;101628.22;;;0.02;100.00
61318;BME280;47201;40.428;-8.436;2023-01-26T05:31:54;101620.31;;;-0.02;100.00
61318;BME280;47201;40.428;-8.436;2023-01-26T05:33:54;101625.28;;;-0.05;100.00
61318;BME280;47201;40.428;-8.436;2023-01-26T05:35:57;101619.91;;;-0.09;100.00
61318;BME280;47201;40.428;-8.436;2023-01-26T05:37:58;101623.88;;;-0.14;100.00
61318;BME280;47201;40.428;-8.436;2023-01-26T05:40:00;101626.34;;;-0.16;100.00
61318;BME280;47201;40.428;-8.436;2023-01-26T05:42:02;101620.16;;;-0.20;100.00
61318;BME280;47201;40.428;-8.436;2023-01-26T05:44:22;101618.75;;;-0.29;100.00
61318;BME280;47201;40.428;-8.436;2023-01-26T05:46:44;101614.84;;;-0.38;100.00
61318;BME280;47201;40.428;-8.436;2023-01-26T05:48:44;101606.88;;;-0.42;100.00
61318;BME280;47201;40.428;-8.436;2023-01-26T05:50:45;101603.69;;;-0.38;100.00
61318;BME280;47201;40.428;-8.436;2023-01-26T05:52:54;101589.97;;;-0.24;100.00
61318;BME280;47201;40.428;-8.436;2023-01-26T05:54:54;101595.97;;;-0.08;100.00
61318;BME280;47201;40.428;-8.436;2023-01-26T05:56:56;101603.38;;;0.02;100.00
61318;BME280;47201;40.428;-8.436;2023-01-26T05:58:59;101605.66;;;0.12;100.00
61318;BME280;47201;40.428;-8.436;2023-01-26T06:01:02;101603.44;;;0.19;100.00
61318;BME280;47201;40.428;-8.436;2023-01-26T06:03:04;101607.13;;;0.24;100.00
61318;BME280;47201;40.428;-8.436;2023-01-26T06:05:05;101611.66;;;0.28;100.00
61318;BME280;47201;40.428;-8.436;2023-01-26T06:07:06;101613.75;;;0.35;100.00
61318;BME280;47201;40.428;-8.436;2023-01-26T06:09:11;101611.19;;;0.35;100.00
61318;BME280;47201;40.428;-8.436;2023-01-26T06:11:25;101610.28;;;0.35;100.00
61318;BME280;47201;40.428;-8.436;2023-01-26T06:13:55;101612.06;;;0.36;100.00
61318;BME280;47201;40.428;-8.436;2023-01-26T06:16:00;101605.94;;;0.34;100.00
61318;BME280;47201;40.428;-8.436;2023-01-26T06:18:03;101602.16;;;0.27;100.00
61318;BME280;47201;40.428;-8.436;2023-01-26T06:20:05;101605.75;;;0.14;100.00
61318;BME280;47201;40.428;-8.436;2023-01-26T06:22:06;101605.81;;;0.15;100.00
61318;BME280;47201;40.428;-8.436;2023-01-26T06:24:12;101602.91;;;0.09;100.00
61318;BME280;47201;40.428;-8.436;2023-01-26T06:26:13;101597.78;;;0.09;100.00
61318;BME280;47201;40.428;-8.436;2023-01-26T06:28:15;101595.84;;;0.05;100.00
61318;BME280;47201;40.428;-8.436;2023-01-26T06:30:15;101605.78;;;-0.01;100.00
61318;BME280;47201;40.428;-8.436;2023-01-26T06:32:19;101606.25;;;-0.08;100.00
61318;BME280;47201;40.428;-8.436;2023-01-26T06:34:24;101605.00;;;-0.15;100.00
61318;BME280;47201;40.428;-8.436;2023-01-26T06:36:25;101593.47;;;-0.22;100.00
61318;BME280;47201;40.428;-8.436;2023-01-26T06:38:28;101588.09;;;-0.26;100.00
61318;BME280;47201;40.428;-8.436;2023-01-26T06:40:29;101598.47;;;-0.25;100.00
61318;BME280;47201;40.428;-8.436;2023-01-26T06:42:30;101593.06;;;-0.29;100.00
61318;BME280;47201;40.428;-8.436;2023-01-26T06:44:30;101594.84;;;-0.28;100.00
61318;BME280;47201;40.428;-8.436;2023-01-26T06:46:31;101588.44;;;-0.35;100.00
61318;BME280;47201;40.428;-8.436;2023-01-26T06:48:33;101590.41;;;-0.46;100.00
61318;BME280;47201;40.428;-8.436;2023-01-26T06:50:35;101597.03;;;-0.50;100.00
61318;BME280;47201;40.428;-8.436;2023-01-26T06:52:35;101583.69;;;-0.44;100.00
61318;BME280;47201;40.428;-8.436;2023-01-26T06:54:43;101572.69;;;-0.41;100.00
61318;BME280;47201;40.428;-8.436;2023-01-26T06:57:07;101564.72;;;-0.46;100.00
61318;BME280;47201;40.428;-8.436;2023-01-26T06:59:19;101566.69;;;-0.42;100.00
61318;BME280;47201;40.428;-8.436;2023-01-26T07:01:46;101567.88;;;-0.20;100.00
61318;BME280;47201;40.428;-8.436;2023-01-26T07:03:48;101571.59;;;-0.15;100.00
61318;BME280;47201;40.428;-8.436;2023-01-26T07:05:48;101576.31;;;-0.23;100.00
61318;BME280;47201;40.428;-8.436;2023-01-26T07:07:49;101569.66;;;-0.19;100.00
61318;BME280;47201;40.428;-8.436;2023-01-26T07:09:49;101567.69;;;-0.23;100.00
61318;BME280;47201;40.428;-8.436;2023-01-26T07:11:50;101570.00;;;-0.28;100.00
61318;BME280;47201;40.428;-8.436;2023-01-26T07:13:50;101562.31;;;-0.28;100.00
61318;BME280;47201;40.428;-8.436;2023-01-26T07:15:51;101569.84;;;-0.31;100.00
61318;BME280;47201;40.428;-8.436;2023-01-26T07:17:51;101573.38;;;-0.29;100.00
61318;BME280;47201;40.428;-8.436;2023-01-26T07:19:53;101562.94;;;-0.32;100.00
61318;BME280;47201;40.428;-8.436;2023-01-26T07:21:54;101554.25;;;-0.34;100.00
61318;BME280;47201;40.428;-8.436;2023-01-26T07:23:54;101557.53;;;-0.37;100.00
61318;BME280;47201;40.428;-8.436;2023-01-26T07:25:55;101558.59;;;-0.33;100.00
61318;BME280;47201;40.428;-8.436;2023-01-26T07:27:56;101554.44;;;-0.31;100.00
61318;BME280;47201;40.428;-8.436;2023-01-26T07:29:57;101550.34;;;-0.27;100.00
61318;BME280;47201;40.428;-8.436;2023-01-26T07:31:57;101549.31;;;-0.31;100.00
61318;BME280;47201;40.428;-8.436;2023-01-26T07:33:58;101538.84;;;-0.34;100.00
61318;BME280;47201;40.428;-8.436;2023-01-26T07:35:58;101547.00;;;-0.41;100.00
61318;BME280;47201;40.428;-8.436;2023-01-26T07:37:59;101546.00;;;-0.43;100.00
61318;BME280;47201;40.428;-8.436;2023-01-26T07:39:59;101561.16;;;-0.48;100.00
61318;BME280;47201;40.428;-8.436;2023-01-26T07:42:00;101564.00;;;-0.43;100.00
61318;BME280;47201;40.428;-8.436;2023-01-26T07:44:18;101568.25;;;-0.44;100.00
61318;BME280;47201;40.428;-8.436;2023-01-26T07:46:19;101563.06;;;-0.45;100.00
61318;BME280;47201;40.428;-8.436;2023-01-26T07:48:21;101558.72;;;-0.46;100.00
61318;BME280;47201;40.428;-8.436;2023-01-26T07:50:22;101546.66;;;-0.47;100.00
61318;BME280;47201;40.428;-8.436;2023-01-26T07:52:24;101553.66;;;-0.45;100.00
61318;BME280;47201;40.428;-8.436;2023-01-26T07:54:25;101549.56;;;-0.41;100.00
61318;BME280;47201;40.428;-8.436;2023-01-26T07:56:26;101556.56;;;-0.39;100.00
61318;BME280;47201;40.428;-8.436;2023-01-26T07:58:26;101569.84;;;-0.31;100.00
61318;BME280;47201;40.428;-8.436;2023-01-26T08:00:27;101577.72;;;-0.28;100.00
61318;BME280;47201;40.428;-8.436;2023-01-26T08:02:27;101580.56;;;-0.23;100.00
61318;BME280;47201;40.428;-8.436;2023-01-26T08:04:28;101584.91;;;-0.22;100.00
61318;BME280;47201;40.428;-8.436;2023-01-26T08:06:28;101577.53;;;-0.16;100.00
61318;BME280;47201;40.428;-8.436;2023-01-26T08:08:29;101581.34;;;-0.09;100.00
61318;BME280;47201;40.428;-8.436;2023-01-26T08:10:29;101585.97;;;0.13;100.00
61318;BME280;47201;40.428;-8.436;2023-01-26T08:12:31;101593.66;;;0.28;100.00
61318;BME280;47201;40.428;-8.436;2023-01-26T08:14:33;101590.94;;;0.41;100.00
61318;BME280;47201;40.428;-8.436;2023-01-26T08:16:35;101593.03;;;0.49;100.00
61318;BME280;47201;40.428;-8.436;2023-01-26T08:18:36;101602.13;;;0.58;100.00
61318;BME280;47201;40.428;-8.436;2023-01-26T08:20:37;101602.69;;;0.69;100.00
61318;BME280;47201;40.428;-8.436;2023-01-26T08:22:37;101585.97;;;0.77;100.00
61318;BME280;47201;40.428;-8.436;2023-01-26T08:24:38;101589.91;;;0.87;100.00
61318;BME280;47201;40.428;-8.436;2023-01-26T08:26:38;101575.69;;;0.94;100.00
61318;BME280;47201;40.428;-8.436;2023-01-26T08:28:39;101581.56;;;0.91;100.00
61318;BME280;47201;40.428;-8.436;2023-01-26T08:30:40;101575.69;;;0.94;100.00
61318;BME280;47201;40.428;-8.436;2023-01-26T08:32:41;101564.41;;;0.92;100.00
61318;BME280;47201;40.428;-8.436;2023-01-26T08:34:41;101566.44;;;0.98;100.00
61318;BME280;47201;40.428;-8.436;2023-01-26T08:36:42;101554.25;;;1.12;100.00
61318;BME280;47201;40.428;-8.436;2023-01-26T08:38:42;101557.75;;;1.30;100.00
61318;BME280;47201;40.428;-8.436;2023-01-26T08:40:43;101554.97;;;1.43;100.00
61318;BME280;47201;40.428;-8.436;2023-01-26T08:42:43;101552.34;;;1.60;100.00
61318;BME280;47201;40.428;-8.436;2023-01-26T08:44:44;101560.66;;;1.72;100.00
61318;BME280;47201;40.428;-8.436;2023-01-26T08:46:44;101564.94;;;1.90;100.00
61318;BME280;47201;40.428;-8.436;2023-01-26T08:48:45;101566.69;;;2.09;100.00
61318;BME280;47201;40.428;-8.436;2023-01-26T08:50:45;101557.16;;;2.26;100.00
61318;BME280;47201;40.428;-8.436;2023-01-26T08:52:46;101555.13;;;2.38;100.00
61318;BME280;47201;40.428;-8.436;2023-01-26T08:54:47;101547.81;;;2.48;100.00
61318;BME280;47201;40.428;-8.436;2023-01-26T08:56:47;101556.66;;;2.53;100.00
61318;BME280;47201;40.428;-8.436;2023-01-26T08:58:48;101554.88;;;2.52;100.00
61318;BME280;47201;40.428;-8.436;2023-01-26T09:00:48;101552.84;;;2.45;100.00
61318;BME280;47201;40.428;-8.436;2023-01-26T09:02:49;101540.38;;;2.36;100.00
61318;BME280;47201;40.428;-8.436;2023-01-26T09:04:49;101549.16;;;2.40;100.00
61318;BME280;47201;40.428;-8.436;2023-01-26T09:06:50;101549.56;;;2.49;100.00
61318;BME280;47201;40.428;-8.436;2023-01-26T09:08:50;101551.19;;;2.47;100.00
61318;BME280;47201;40.428;-8.436;2023-01-26T09:10:51;101560.25;;;2.57;100.00
61318;BME280;47201;40.428;-8.436;2023-01-26T09:12:52;101559.72;;;2.64;100.00
61318;BME280;47201;40.428;-8.436;2023-01-26T09:14:52;101559.16;;;2.51;100.00
61318;BME280;47201;40.428;-8.436;2023-01-26T09:16:53;101558.56;;;2.57;100.00
61318;BME280;47201;40.428;-8.436;2023-01-26T09:18:53;101552.16;;;2.68;100.00
61318;BME280;47201;40.428;-8.436;2023-01-26T09:20:54;101550.19;;;2.82;100.00
61318;BME280;47201;40.428;-8.436;2023-01-26T09:22:55;101547.47;;;2.99;100.00
61318;BME280;47201;40.428;-8.436;2023-01-26T09:24:55;101548.19;;;3.16;100.00
61318;BME280;47201;40.428;-8.436;2023-01-26T09:26:56;101555.88;;;3.36;100.00
61318;BME280;47201;40.428;-8.436;2023-01-26T09:28:57;101550.75;;;3.58;100.00
61318;BME280;47201;40.428;-8.436;2023-01-26T09:31:01;101554.53;;;3.88;100.00
61318;BME280;47201;40.428;-8.436;2023-01-26T09:33:02;101551.78;;;4.06;100.00
61318;BME280;47201;40.428;-8.436;2023-01-26T09:35:03;101555.38;;;4.09;100.00
61318;BME280;47201;40.428;-8.436;2023-01-26T09:37:05;101568.66;;;4.19;100.00
61318;BME280;47201;40.428;-8.436;2023-01-26T09:39:06;101561.25;;;4.28;99.66
61318;BME280;47201;40.428;-8.436;2023-01-26T09:48:24;101561.34;;;12.88;56.97
61318;BME280;47201;40.428;-8.436;2023-01-26T09:50:37;101563.88;;;14.55;48.78
61318;BME280;47201;40.428;-8.436;2023-01-26T09:54:47;101570.66;;;17.44;44.21
61318;BME280;47201;40.428;-8.436;2023-01-26T09:56:49;101574.38;;;18.75;41.98
61318;BME280;47201;40.428;-8.436;2023-01-26T09:58:59;101571.53;;;19.60;39.24
61318;BME280;47201;40.428;-8.436;2023-01-26T10:01:02;101573.97;;;20.35;38.83
61318;BME280;47201;40.428;-8.436;2023-01-26T10:07:41;101578.44;;;20.63;40.93
61318;BME280;47201;40.428;-8.436;2023-01-26T10:09:44;101571.72;;;19.88;44.06
61318;BME280;47201;40.428;-8.436;2023-01-26T10:11:46;101573.09;;;19.69;46.22
61318;BME280;47201;40.428;-8.436;2023-01-26T10:13:49;101560.81;;;19.99;47.73
61318;BME280;47201;40.428;-8.436;2023-01-26T10:15:51;101558.03;;;19.69;49.47
61318;BME280;47201;40.428;-8.436;2023-01-26T10:17:53;101572.28;;;19.29;51.28
61318;BME280;47201;40.428;-8.436;2023-01-26T10:19:55;101570.16;;;19.45;52.62
61318;BME280;47201;40.428;-8.436;2023-01-26T10:21:59;101562.75;;;19.22;54.56
61318;BME280;47201;40.428;-8.436;2023-01-26T10:24:03;101570.41;;;20.05;53.45
61318;BME280;47201;40.428;-8.436;2023-01-26T10:26:11;101565.25;;;19.64;54.97
61318;BME280;47201;40.428;-8.436;2023-01-26T10:28:34;101571.31;;;19.33;58.04
61318;BME280;47201;40.428;-8.436;2023-01-26T10:30:37;101563.38;;;18.53;60.04
61318;BME280;47201;40.428;-8.436;2023-01-26T10:32:39;101555.56;;;18.87;60.27
61318;BME280;47201;40.428;-8.436;2023-01-26T10:34:41;101544.66;;;19.74;59.66
61318;BME280;47201;40.428;-8.436;2023-01-26T10:36:44;101542.75;;;20.73;57.61
61318;BME280;47201;40.428;-8.436;2023-01-26T10:38:46;101553.03;;;21.93;54.73
61318;BME280;47201;40.428;-8.436;2023-01-26T10:40:46;101543.19;;;22.19;55.01
61318;BME280;47201;40.428;-8.436;2023-01-26T10:43:20;101539.16;;;22.80;55.14
61318;BME280;47201;40.428;-8.436;2023-01-26T10:45:30;101529.13;;;22.87;55.41
61318;BME280;47201;40.428;-8.436;2023-01-26T10:47:31;101515.28;;;22.99;56.88
61318;BME280;47201;40.428;-8.436;2023-01-26T10:49:32;101511.09;;;23.57;56.19
61318;BME280;47201;40.428;-8.436;2023-01-26T10:51:33;101508.66;;;23.94;55.95
61318;BME280;47201;40.428;-8.436;2023-01-26T10:53:34;101504.44;;;23.26;58.35
61318;BME280;47201;40.428;-8.436;2023-01-26T10:55:34;101499.47;;;22.94;60.30
61318;BME280;47201;40.428;-8.436;2023-01-26T10:57:37;101498.03;;;21.42;64.31